Weather at Val-d'Or Airport

Public forecast

Using degrees Celsius for public forecast. Weather courtesy of forecast.io.

Current aviation weather report (METAR) for Val-d'Or Airport

Retrieved 2020/09/24 23:00 UTC (37 minutes ago):

CYVO 242300Z 31004KT 15SM FEW240 09/04 A3002 RMK CI1 CI TR SLP180

Aviation forecast (TAF) for Val-d'Or Airport

Retrieved 2020/09/24 18:00 UTC (6 hours ago):

TAF CYVO 241738Z 2418/2506 36005KT P6SM SCT030 TEMPO 2418/2420 BKN030 FM242000 01005KT P6SM FEW030 RMK NXT FCST BY 250000Z